Terminal Aerodrome Forecast
Issued by NWS

Home | Current Version | Previous Version | Text Only | Print | Product List | Glossary On
Versions: 1 2 3 4 5 6 7 8 9 10 11 12 13 14 15 16 17
000
FTUS44 KTSA 171700
TAFMLC
TAF
KMLC 171737Z 1718/1818 20009KT P6SM SCT050 BKN250
     FM180100 18004KT P6SM BKN250
     FM180900 00000KT 5SM BR SCT015
     FM181500 18007KT P6SM SCT150=

USA.gov is the U.S. government's official web portal to all federal, state and local government web resources and services.